sim
Sign-in with your pilot id or email,
or register
Callsign
Passwort

Schedule Details

Flight Number: DLH810 (1)
Departure: Frankfurt Airport (EDDF) at 08:45
Arrival: Gothenburg Landvetter Airport (ESGG) at 10:25
Route: Lufthansa Passenger Schedule. Enter filed route here before submitting Pirep.

Weather Information
Getting current METAR information for EDDF 291250Z 25004KT 200V300 9999 VCSH FEW020CB BKN028 10/08 Q1019 RESHRA NOSIG
Getting current METAR information for ESGG 291250Z 21003KT 9999 SCT035 09/07 Q1004

Schedule Frequency

Route Map